sensor_id;sensor_type;location;lat;lon;timestamp;pressure;altitude;pressure_sealevel;temperature;humidity
43683;BME280;29285;52.128;21.060;2022-08-16T00:03:52;99665.69;;;23.58;68.21
43683;BME280;29285;52.128;21.060;2022-08-16T00:08:54;99661.94;;;23.55;68.36
43683;BME280;29285;52.128;21.060;2022-08-16T00:13:55;99658.94;;;23.54;68.54
43683;BME280;29285;52.128;21.060;2022-08-16T00:18:58;99652.19;;;23.50;68.65
43683;BME280;29285;52.128;21.060;2022-08-16T00:23:59;99657.26;;;23.47;68.77
43683;BME280;29285;52.128;21.060;2022-08-16T00:29:02;99663.55;;;23.46;68.95
43683;BME280;29285;52.128;21.060;2022-08-16T00:34:04;99667.64;;;23.45;69.08
43683;BME280;29285;52.128;21.060;2022-08-16T00:39:04;99673.22;;;23.42;69.22
43683;BME280;29285;52.128;21.060;2022-08-16T00:44:06;99674.78;;;23.38;69.33
43683;BME280;29285;52.128;21.060;2022-08-16T00:49:12;99678.30;;;23.39;69.49
43683;BME280;29285;52.128;21.060;2022-08-16T00:54:14;99682.04;;;23.36;69.57
43683;BME280;29285;52.128;21.060;2022-08-16T00:59:16;99685.28;;;23.34;69.66
43683;BME280;29285;52.128;21.060;2022-08-16T01:04:22;99675.28;;;23.32;69.79
43683;BME280;29285;52.128;21.060;2022-08-16T01:09:24;99668.38;;;23.30;69.90
43683;BME280;29285;52.128;21.060;2022-08-16T01:14:29;99673.92;;;23.26;69.99
43683;BME280;29285;52.128;21.060;2022-08-16T01:19:41;99681.06;;;23.20;70.03
43683;BME280;29285;52.128;21.060;2022-08-16T01:24:49;99665.75;;;23.12;70.10
43683;BME280;29285;52.128;21.060;2022-08-16T01:30:05;99670.94;;;23.08;70.22
43683;BME280;29285;52.128;21.060;2022-08-16T01:35:21;99662.97;;;23.03;70.34
43683;BME280;29285;52.128;21.060;2022-08-16T01:40:27;99650.09;;;22.98;70.45
43683;BME280;29285;52.128;21.060;2022-08-16T01:45:30;99638.27;;;22.96;70.67
43683;BME280;29285;52.128;21.060;2022-08-16T01:50:32;99647.42;;;22.92;70.75
43683;BME280;29285;52.128;21.060;2022-08-16T01:55:34;99640.68;;;22.94;70.90
43683;BME280;29285;52.128;21.060;2022-08-16T02:00:35;99634.79;;;22.96;71.04
43683;BME280;29285;52.128;21.060;2022-08-16T02:22:10;99615.85;;;22.83;71.36
43683;BME280;29285;52.128;21.060;2022-08-16T02:27:12;99621.27;;;22.82;71.43
43683;BME280;29285;52.128;21.060;2022-08-16T02:32:15;99628.41;;;22.81;71.52
43683;BME280;29285;52.128;21.060;2022-08-16T02:37:16;99630.20;;;22.81;71.59
43683;BME280;29285;52.128;21.060;2022-08-16T02:42:17;99627.66;;;22.79;71.64
43683;BME280;29285;52.128;21.060;2022-08-16T02:47:19;99631.05;;;22.81;71.74
43683;BME280;29285;52.128;21.060;2022-08-16T02:52:21;99618.73;;;22.80;71.77
43683;BME280;29285;52.128;21.060;2022-08-16T02:57:23;99620.20;;;22.79;71.82
43683;BME280;29285;52.128;21.060;2022-08-16T03:02:25;99627.92;;;22.76;71.83
43683;BME280;29285;52.128;21.060;2022-08-16T03:07:27;99623.70;;;22.68;71.80
43683;BME280;29285;52.128;21.060;2022-08-16T03:12:28;99629.84;;;22.63;71.81
43683;BME280;29285;52.128;21.060;2022-08-16T03:17:29;99624.41;;;22.58;71.85
43683;BME280;29285;52.128;21.060;2022-08-16T03:22:30;99625.02;;;22.56;71.92
43683;BME280;29285;52.128;21.060;2022-08-16T03:27:32;99628.50;;;22.57;72.04
43683;BME280;29285;52.128;21.060;2022-08-16T03:32:34;99631.66;;;22.56;72.13
43683;BME280;29285;52.128;21.060;2022-08-16T03:37:36;99629.36;;;22.57;72.23
43683;BME280;29285;52.128;21.060;2022-08-16T03:42:37;99632.25;;;22.60;72.33
43683;BME280;29285;52.128;21.060;2022-08-16T03:47:39;99624.19;;;22.61;72.38
43683;BME280;29285;52.128;21.060;2022-08-16T03:52:41;99625.01;;;22.62;72.41
43683;BME280;29285;52.128;21.060;2022-08-16T03:57:42;99636.83;;;22.64;72.44
43683;BME280;29285;52.128;21.060;2022-08-16T04:02:44;99645.28;;;22.63;72.47
43683;BME280;29285;52.128;21.060;2022-08-16T04:07:45;99660.33;;;22.63;72.52
43683;BME280;29285;52.128;21.060;2022-08-16T04:12:46;99664.66;;;22.64;72.58
43683;BME280;29285;52.128;21.060;2022-08-16T04:17:48;99652.27;;;22.64;72.62
43683;BME280;29285;52.128;21.060;2022-08-16T04:22:49;99657.81;;;22.67;72.68
43683;BME280;29285;52.128;21.060;2022-08-16T04:27:50;99661.42;;;22.77;72.83
43683;BME280;29285;52.128;21.060;2022-08-16T04:32:51;99660.34;;;22.97;73.15
43683;BME280;29285;52.128;21.060;2022-08-16T04:37:52;99659.47;;;23.13;73.34
43683;BME280;29285;52.128;21.060;2022-08-16T04:42:54;99665.34;;;23.28;73.43
43683;BME280;29285;52.128;21.060;2022-08-16T04:47:56;99661.62;;;23.43;73.42
43683;BME280;29285;52.128;21.060;2022-08-16T04:52:58;99663.66;;;23.50;73.30
43683;BME280;29285;52.128;21.060;2022-08-16T04:57:59;99667.02;;;23.58;73.17
43683;BME280;29285;52.128;21.060;2022-08-16T05:03:07;99664.20;;;23.65;73.08
43683;BME280;29285;52.128;21.060;2022-08-16T05:08:08;99671.80;;;23.70;72.91
43683;BME280;29285;52.128;21.060;2022-08-16T05:13:09;99678.16;;;23.79;72.83
43683;BME280;29285;52.128;21.060;2022-08-16T05:18:11;99683.23;;;23.82;72.64
43683;BME280;29285;52.128;21.060;2022-08-16T05:23:13;99687.41;;;23.90;72.58
43683;BME280;29285;52.128;21.060;2022-08-16T05:28:16;99676.27;;;23.97;72.47
43683;BME280;29285;52.128;21.060;2022-08-16T05:33:18;99685.20;;;24.01;72.34
43683;BME280;29285;52.128;21.060;2022-08-16T05:38:20;99687.73;;;24.03;72.17
43683;BME280;29285;52.128;21.060;2022-08-16T05:43:27;99694.45;;;24.07;72.08
43683;BME280;29285;52.128;21.060;2022-08-16T05:48:29;99697.73;;;24.05;71.89
43683;BME280;29285;52.128;21.060;2022-08-16T05:53:31;99700.75;;;24.06;71.71
43683;BME280;29285;52.128;21.060;2022-08-16T05:58:32;99698.09;;;24.06;71.59
43683;BME280;29285;52.128;21.060;2022-08-16T06:03:33;99689.64;;;24.06;71.51
43683;BME280;29285;52.128;21.060;2022-08-16T06:08:34;99695.22;;;24.09;71.48
43683;BME280;29285;52.128;21.060;2022-08-16T06:13:35;99691.23;;;24.09;71.39
43683;BME280;29285;52.128;21.060;2022-08-16T06:18:37;99685.17;;;24.13;71.30
43683;BME280;29285;52.128;21.060;2022-08-16T06:23:38;99687.41;;;24.23;71.32
43683;BME280;29285;52.128;21.060;2022-08-16T06:28:40;99680.74;;;24.29;71.29
43683;BME280;29285;52.128;21.060;2022-08-16T06:33:42;99680.44;;;24.38;71.29
43683;BME280;29285;52.128;21.060;2022-08-16T06:38:43;99681.02;;;24.41;71.12
43683;BME280;29285;52.128;21.060;2022-08-16T06:43:44;99682.80;;;24.46;71.03
43683;BME280;29285;52.128;21.060;2022-08-16T06:48:47;99679.61;;;24.53;70.94
43683;BME280;29285;52.128;21.060;2022-08-16T06:53:48;99694.08;;;24.60;70.89
43683;BME280;29285;52.128;21.060;2022-08-16T06:58:50;99689.65;;;24.70;70.80
43683;BME280;29285;52.128;21.060;2022-08-16T07:03:52;99689.21;;;24.81;70.69
43683;BME280;29285;52.128;21.060;2022-08-16T07:08:53;99688.25;;;24.97;70.63
43683;BME280;29285;52.128;21.060;2022-08-16T07:13:55;99689.00;;;25.09;70.53
43683;BME280;29285;52.128;21.060;2022-08-16T07:18:56;99690.28;;;25.15;70.25
43683;BME280;29285;52.128;21.060;2022-08-16T07:23:58;99694.08;;;25.22;70.05
43683;BME280;29285;52.128;21.060;2022-08-16T07:29:00;99691.25;;;25.40;70.06
43683;BME280;29285;52.128;21.060;2022-08-16T07:34:02;99688.63;;;25.49;69.92
43683;BME280;29285;52.128;21.060;2022-08-16T07:39:03;99673.16;;;25.59;69.79
43683;BME280;29285;52.128;21.060;2022-08-16T07:44:04;99680.53;;;25.71;69.63
43683;BME280;29285;52.128;21.060;2022-08-16T07:49:06;99674.50;;;25.78;69.42
43683;BME280;29285;52.128;21.060;2022-08-16T07:54:09;99680.55;;;25.81;69.16
43683;BME280;29285;52.128;21.060;2022-08-16T07:59:10;99682.72;;;25.91;69.04
43683;BME280;29285;52.128;21.060;2022-08-16T08:04:11;99689.09;;;26.04;69.00
43683;BME280;29285;52.128;21.060;2022-08-16T08:09:13;99681.42;;;26.15;68.84
43683;BME280;29285;52.128;21.060;2022-08-16T08:14:15;99685.02;;;26.20;68.60
43683;BME280;29285;52.128;21.060;2022-08-16T08:19:16;99684.88;;;26.21;68.40
43683;BME280;29285;52.128;21.060;2022-08-16T08:24:18;99696.67;;;26.28;68.30
43683;BME280;29285;52.128;21.060;2022-08-16T08:34:31;99698.14;;;26.37;68.04
43683;BME280;29285;52.128;21.060;2022-08-16T08:39:32;99688.81;;;26.37;67.93
43683;BME280;29285;52.128;21.060;2022-08-16T08:44:39;99710.00;;;26.38;67.79
43683;BME280;29285;52.128;21.060;2022-08-16T08:49:37;99705.08;;;26.34;67.59
43683;BME280;29285;52.128;21.060;2022-08-16T08:54:39;99713.80;;;26.36;67.51
43683;BME280;29285;52.128;21.060;2022-08-16T08:59:40;99714.55;;;26.42;67.43
43683;BME280;29285;52.128;21.060;2022-08-16T09:04:42;99710.25;;;26.45;67.31
43683;BME280;29285;52.128;21.060;2022-08-16T09:09:44;99709.12;;;26.48;67.17
43683;BME280;29285;52.128;21.060;2022-08-16T09:14:45;99716.64;;;26.48;67.04
43683;BME280;29285;52.128;21.060;2022-08-16T09:19:46;99711.82;;;26.38;66.90
43683;BME280;29285;52.128;21.060;2022-08-16T09:24:48;99709.59;;;26.33;66.82
43683;BME280;29285;52.128;21.060;2022-08-16T09:29:49;99711.55;;;26.31;66.81
43683;BME280;29285;52.128;21.060;2022-08-16T09:34:51;99720.39;;;26.32;66.84
43683;BME280;29285;52.128;21.060;2022-08-16T09:39:52;99720.53;;;26.30;66.82
43683;BME280;29285;52.128;21.060;2022-08-16T09:44:54;99719.41;;;26.33;66.83
43683;BME280;29285;52.128;21.060;2022-08-16T09:49:55;99718.83;;;26.39;66.84
43683;BME280;29285;52.128;21.060;2022-08-16T09:54:57;99733.02;;;26.39;66.74
43683;BME280;29285;52.128;21.060;2022-08-16T09:59:58;99738.55;;;26.42;66.65
43683;BME280;29285;52.128;21.060;2022-08-16T10:05:00;99735.95;;;26.46;66.60
43683;BME280;29285;52.128;21.060;2022-08-16T10:10:02;99747.38;;;26.52;66.56
43683;BME280;29285;52.128;21.060;2022-08-16T10:15:04;99751.08;;;26.55;66.49
43683;BME280;29285;52.128;21.060;2022-08-16T10:20:09;99749.13;;;26.58;66.39
43683;BME280;29285;52.128;21.060;2022-08-16T10:25:14;99750.80;;;26.59;66.26
43683;BME280;29285;52.128;21.060;2022-08-16T10:30:16;99754.88;;;26.63;66.28
43683;BME280;29285;52.128;21.060;2022-08-16T10:35:18;99751.42;;;26.66;66.27
43683;BME280;29285;52.128;21.060;2022-08-16T10:40:20;99756.75;;;26.66;66.10
43683;BME280;29285;52.128;21.060;2022-08-16T10:45:21;99754.16;;;26.70;66.02
43683;BME280;29285;52.128;21.060;2022-08-16T10:50:22;99760.38;;;26.75;65.96
43683;BME280;29285;52.128;21.060;2022-08-16T10:55:24;99776.05;;;26.74;65.77
43683;BME280;29285;52.128;21.060;2022-08-16T11:00:26;99777.58;;;26.77;65.65
43683;BME280;29285;52.128;21.060;2022-08-16T11:05:29;99788.12;;;26.78;65.52
43683;BME280;29285;52.128;21.060;2022-08-16T11:10:41;99789.80;;;26.79;65.37
43683;BME280;29285;52.128;21.060;2022-08-16T11:15:40;99792.19;;;26.82;65.28
43683;BME280;29285;52.128;21.060;2022-08-16T11:20:43;99786.41;;;26.87;65.23
43683;BME280;29285;52.128;21.060;2022-08-16T11:25:46;99793.93;;;26.88;65.12
43683;BME280;29285;52.128;21.060;2022-08-16T11:30:48;99789.72;;;26.85;65.02
43683;BME280;29285;52.128;21.060;2022-08-16T11:35:49;99792.46;;;26.79;64.94
43683;BME280;29285;52.128;21.060;2022-08-16T11:40:54;99794.72;;;26.74;64.95
43683;BME280;29285;52.128;21.060;2022-08-16T11:45:58;99793.97;;;26.68;64.91
43683;BME280;29285;52.128;21.060;2022-08-16T11:51:01;99788.42;;;26.65;64.99
43683;BME280;29285;52.128;21.060;2022-08-16T11:56:04;99789.28;;;26.66;65.04
43683;BME280;29285;52.128;21.060;2022-08-16T12:01:06;99780.83;;;26.70;65.16
43683;BME280;29285;52.128;21.060;2022-08-16T12:06:14;99788.39;;;26.75;65.28
43683;BME280;29285;52.128;21.060;2022-08-16T12:11:16;99783.91;;;26.76;65.25
43683;BME280;29285;52.128;21.060;2022-08-16T12:16:18;99774.09;;;26.76;65.23
43683;BME280;29285;52.128;21.060;2022-08-16T12:21:20;99765.23;;;26.76;65.25
43683;BME280;29285;52.128;21.060;2022-08-16T12:26:21;99768.38;;;26.75;65.25
43683;BME280;29285;52.128;21.060;2022-08-16T12:31:24;99758.22;;;26.75;65.25
43683;BME280;29285;52.128;21.060;2022-08-16T12:36:26;99766.36;;;26.73;65.28
43683;BME280;29285;52.128;21.060;2022-08-16T12:41:28;99755.55;;;26.75;65.30
43683;BME280;29285;52.128;21.060;2022-08-16T12:46:32;99759.97;;;26.70;65.24
43683;BME280;29285;52.128;21.060;2022-08-16T12:51:34;99751.69;;;26.73;65.34
43683;BME280;29285;52.128;21.060;2022-08-16T12:56:38;99749.18;;;26.86;65.41
43683;BME280;29285;52.128;21.060;2022-08-16T13:01:39;99743.87;;;27.09;65.41
43683;BME280;29285;52.128;21.060;2022-08-16T13:06:42;99730.76;;;27.58;65.49
43683;BME280;29285;52.128;21.060;2022-08-16T13:11:47;99718.87;;;28.07;65.38
43683;BME280;29285;52.128;21.060;2022-08-16T13:17:00;99719.24;;;28.49;65.13
43683;BME280;29285;52.128;21.060;2022-08-16T13:22:02;99704.37;;;29.16;64.15
43683;BME280;29285;52.128;21.060;2022-08-16T13:27:03;99704.37;;;29.16;64.15
43683;BME280;29285;52.128;21.060;2022-08-16T13:32:05;99698.27;;;29.40;63.65
43683;BME280;29285;52.128;21.060;2022-08-16T13:37:06;99698.65;;;29.54;63.06
43683;BME280;29285;52.128;21.060;2022-08-16T13:42:11;99689.96;;;29.56;62.47
43683;BME280;29285;52.128;21.060;2022-08-16T13:47:13;99697.70;;;29.76;62.03
43683;BME280;29285;52.128;21.060;2022-08-16T13:52:14;99697.05;;;29.90;61.59
43683;BME280;29285;52.128;21.060;2022-08-16T13:57:15;99697.21;;;29.93;61.06
43683;BME280;29285;52.128;21.060;2022-08-16T14:02:16;99698.02;;;29.89;60.58
43683;BME280;29285;52.128;21.060;2022-08-16T14:07:17;99692.33;;;29.88;60.25
43683;BME280;29285;52.128;21.060;2022-08-16T14:12:25;99686.12;;;29.88;59.91
43683;BME280;29285;52.128;21.060;2022-08-16T14:17:28;99687.64;;;29.98;59.68
43683;BME280;29285;52.128;21.060;2022-08-16T14:22:32;99686.14;;;30.00;59.10
43683;BME280;29285;52.128;21.060;2022-08-16T14:27:35;99671.89;;;30.20;58.90
43683;BME280;29285;52.128;21.060;2022-08-16T14:32:37;99672.54;;;30.43;58.67
43683;BME280;29285;52.128;21.060;2022-08-16T14:37:39;99662.78;;;30.50;58.06
43683;BME280;29285;52.128;21.060;2022-08-16T14:42:41;99665.41;;;30.80;57.88
43683;BME280;29285;52.128;21.060;2022-08-16T14:47:43;99664.66;;;31.02;57.53
43683;BME280;29285;52.128;21.060;2022-08-16T14:52:48;99666.08;;;31.17;57.00
43683;BME280;29285;52.128;21.060;2022-08-16T14:57:50;99663.19;;;31.27;56.41
43683;BME280;29285;52.128;21.060;2022-08-16T15:02:54;99665.48;;;31.39;56.05
43683;BME280;29285;52.128;21.060;2022-08-16T15:07:57;99669.39;;;31.24;55.35
43683;BME280;29285;52.128;21.060;2022-08-16T15:12:59;99667.55;;;31.33;55.23
43683;BME280;29285;52.128;21.060;2022-08-16T15:18:00;99665.11;;;31.42;55.03
43683;BME280;29285;52.128;21.060;2022-08-16T15:23:05;99661.72;;;31.52;54.80
43683;BME280;29285;52.128;21.060;2022-08-16T15:28:09;99660.51;;;31.78;54.85
43683;BME280;29285;52.128;21.060;2022-08-16T15:33:15;99658.11;;;32.07;54.75
43683;BME280;29285;52.128;21.060;2022-08-16T15:38:18;99663.50;;;32.22;54.41
43683;BME280;29285;52.128;21.060;2022-08-16T15:43:19;99667.57;;;32.37;54.14
43683;BME280;29285;52.128;21.060;2022-08-16T15:48:20;99674.08;;;32.43;53.82
43683;BME280;29285;52.128;21.060;2022-08-16T15:53:22;99669.37;;;32.45;53.38
43683;BME280;29285;52.128;21.060;2022-08-16T15:58:26;99666.05;;;32.69;53.05
43683;BME280;29285;52.128;21.060;2022-08-16T16:03:28;99665.73;;;32.83;52.62
43683;BME280;29285;52.128;21.060;2022-08-16T16:08:30;99678.90;;;32.93;52.17
43683;BME280;29285;52.128;21.060;2022-08-16T16:13:32;99685.48;;;32.79;51.58
43683;BME280;29285;52.128;21.060;2022-08-16T16:18:35;99697.95;;;32.46;51.10
43683;BME280;29285;52.128;21.060;2022-08-16T16:23:42;99702.44;;;31.92;50.83
43683;BME280;29285;52.128;21.060;2022-08-16T16:28:45;99702.08;;;31.44;50.87
43683;BME280;29285;52.128;21.060;2022-08-16T16:33:50;99710.81;;;31.02;51.07
43683;BME280;29285;52.128;21.060;2022-08-16T16:38:54;99703.68;;;30.61;51.26
43683;BME280;29285;52.128;21.060;2022-08-16T16:44:00;99712.45;;;30.25;51.48
43683;BME280;29285;52.128;21.060;2022-08-16T16:49:03;99723.52;;;29.97;51.74
43683;BME280;29285;52.128;21.060;2022-08-16T16:54:08;99712.26;;;29.69;52.02
43683;BME280;29285;52.128;21.060;2022-08-16T16:59:10;99714.73;;;29.54;52.38
43683;BME280;29285;52.128;21.060;2022-08-16T17:04:13;99714.00;;;29.43;52.69
43683;BME280;29285;52.128;21.060;2022-08-16T17:09:16;99729.03;;;29.28;52.87
43683;BME280;29285;52.128;21.060;2022-08-16T17:14:16;99736.69;;;29.18;53.03
43683;BME280;29285;52.128;21.060;2022-08-16T17:19:18;99738.37;;;29.15;53.20
43683;BME280;29285;52.128;21.060;2022-08-16T17:24:19;99744.17;;;29.02;53.25
43683;BME280;29285;52.128;21.060;2022-08-16T17:29:20;99746.16;;;28.78;53.22
43683;BME280;29285;52.128;21.060;2022-08-16T17:34:22;99747.70;;;28.54;53.36
43683;BME280;29285;52.128;21.060;2022-08-16T17:39:25;99739.83;;;28.30;53.52
43683;BME280;29285;52.128;21.060;2022-08-16T17:44:26;99740.97;;;28.09;53.78
43683;BME280;29285;52.128;21.060;2022-08-16T17:49:28;99734.25;;;27.59;54.20
43683;BME280;29285;52.128;21.060;2022-08-16T17:54:29;99734.25;;;27.59;54.20
43683;BME280;29285;52.128;21.060;2022-08-16T17:59:31;99756.77;;;27.56;54.49
43683;BME280;29285;52.128;21.060;2022-08-16T18:04:32;99755.64;;;27.45;54.71
43683;BME280;29285;52.128;21.060;2022-08-16T18:09:34;99762.81;;;27.30;54.89
43683;BME280;29285;52.128;21.060;2022-08-16T18:14:35;99749.72;;;27.09;55.10
43683;BME280;29285;52.128;21.060;2022-08-16T18:19:36;99760.14;;;27.02;55.42
43683;BME280;29285;52.128;21.060;2022-08-16T18:24:38;99763.67;;;26.93;55.78
43683;BME280;29285;52.128;21.060;2022-08-16T18:29:41;99767.17;;;26.83;56.07
43683;BME280;29285;52.128;21.060;2022-08-16T18:34:43;99768.04;;;26.74;56.32
43683;BME280;29285;52.128;21.060;2022-08-16T18:39:44;99758.39;;;26.63;56.55
43683;BME280;29285;52.128;21.060;2022-08-16T18:44:45;99763.38;;;26.52;56.77
43683;BME280;29285;52.128;21.060;2022-08-16T18:49:46;99763.89;;;26.42;56.96
43683;BME280;29285;52.128;21.060;2022-08-16T18:54:47;99760.25;;;26.33;57.21
43683;BME280;29285;52.128;21.060;2022-08-16T18:59:48;99759.53;;;26.31;57.49
43683;BME280;29285;52.128;21.060;2022-08-16T19:04:49;99762.85;;;26.29;57.71
43683;BME280;29285;52.128;21.060;2022-08-16T19:09:51;99761.55;;;26.23;57.82
43683;BME280;29285;52.128;21.060;2022-08-16T19:14:52;99764.14;;;26.19;57.96
43683;BME280;29285;52.128;21.060;2022-08-16T19:19:53;99766.73;;;26.15;58.13
43683;BME280;29285;52.128;21.060;2022-08-16T19:24:54;99765.96;;;26.09;58.22
43683;BME280;29285;52.128;21.060;2022-08-16T19:29:55;99771.64;;;26.00;58.31
43683;BME280;29285;52.128;21.060;2022-08-16T19:34:58;99781.02;;;25.94;58.47
43683;BME280;29285;52.128;21.060;2022-08-16T19:40:00;99784.59;;;25.89;58.64
43683;BME280;29285;52.128;21.060;2022-08-16T19:45:02;99782.48;;;25.83;58.79
43683;BME280;29285;52.128;21.060;2022-08-16T19:50:05;99782.06;;;25.77;58.98
43683;BME280;29285;52.128;21.060;2022-08-16T19:55:08;99786.95;;;25.72;59.17
43683;BME280;29285;52.128;21.060;2022-08-16T20:00:13;99781.89;;;25.69;59.35
43683;BME280;29285;52.128;21.060;2022-08-16T20:05:25;99780.50;;;25.65;59.54
43683;BME280;29285;52.128;21.060;2022-08-16T20:10:29;99784.89;;;25.60;59.68
43683;BME280;29285;52.128;21.060;2022-08-16T20:15:30;99781.89;;;25.54;59.81
43683;BME280;29285;52.128;21.060;2022-08-16T20:20:32;99792.88;;;25.45;59.94
43683;BME280;29285;52.128;21.060;2022-08-16T20:25:33;99793.67;;;25.35;60.09
43683;BME280;29285;52.128;21.060;2022-08-16T20:30:34;99788.45;;;25.24;60.27
43683;BME280;29285;52.128;21.060;2022-08-16T20:35:35;99787.69;;;25.12;60.45
43683;BME280;29285;52.128;21.060;2022-08-16T20:40:36;99791.65;;;25.02;60.65
43683;BME280;29285;52.128;21.060;2022-08-16T20:45:43;99796.55;;;24.91;60.89
43683;BME280;29285;52.128;21.060;2022-08-16T20:50:44;99807.84;;;24.83;61.15
43683;BME280;29285;52.128;21.060;2022-08-16T20:55:46;99797.59;;;24.73;61.36
43683;BME280;29285;52.128;21.060;2022-08-16T21:00:47;99795.34;;;24.68;61.64
43683;BME280;29285;52.128;21.060;2022-08-16T21:05:48;99804.92;;;24.59;61.91
43683;BME280;29285;52.128;21.060;2022-08-16T21:10:50;99793.13;;;24.52;62.11
43683;BME280;29285;52.128;21.060;2022-08-16T21:15:52;99783.00;;;24.46;62.34
43683;BME280;29285;52.128;21.060;2022-08-16T21:20:53;99783.02;;;24.40;62.58
43683;BME280;29285;52.128;21.060;2022-08-16T21:25:54;99778.92;;;24.36;62.79
43683;BME280;29285;52.128;21.060;2022-08-16T21:30:55;99788.39;;;24.29;63.00
43683;BME280;29285;52.128;21.060;2022-08-16T21:35:56;99786.14;;;24.18;63.16
43683;BME280;29285;52.128;21.060;2022-08-16T21:40:58;99780.95;;;24.11;63.34
43683;BME280;29285;52.128;21.060;2022-08-16T21:46:01;99787.10;;;24.06;63.56
43683;BME280;29285;52.128;21.060;2022-08-16T21:51:06;99786.52;;;24.08;63.89
43683;BME280;29285;52.128;21.060;2022-08-16T21:56:09;99791.59;;;24.05;64.05
43683;BME280;29285;52.128;21.060;2022-08-16T22:01:10;99797.73;;;24.06;64.23
43683;BME280;29285;52.128;21.060;2022-08-16T22:06:11;99796.76;;;24.07;64.41
43683;BME280;29285;52.128;21.060;2022-08-16T22:11:22;99798.08;;;24.07;64.54
43683;BME280;29285;52.128;21.060;2022-08-16T22:16:25;99796.17;;;24.03;64.66
43683;BME280;29285;52.128;21.060;2022-08-16T22:21:30;99793.91;;;23.99;64.77
43683;BME280;29285;52.128;21.060;2022-08-16T22:26:34;99799.22;;;23.93;64.86
43683;BME280;29285;52.128;21.060;2022-08-16T22:31:37;99798.01;;;23.91;65.08
43683;BME280;29285;52.128;21.060;2022-08-16T22:36:40;99797.30;;;23.95;65.34
43683;BME280;29285;52.128;21.060;2022-08-16T22:41:42;99799.09;;;23.95;65.50
43683;BME280;29285;52.128;21.060;2022-08-16T22:46:45;99803.20;;;23.99;65.70
43683;BME280;29285;52.128;21.060;2022-08-16T22:51:45;99807.54;;;24.00;65.78
43683;BME280;29285;52.128;21.060;2022-08-16T22:56:48;99819.97;;;23.99;65.90
43683;BME280;29285;52.128;21.060;2022-08-16T23:01:49;99811.76;;;24.02;66.01
43683;BME280;29285;52.128;21.060;2022-08-16T23:06:50;99803.40;;;24.07;66.13
43683;BME280;29285;52.128;21.060;2022-08-16T23:11:52;99799.91;;;24.12;66.30
43683;BME280;29285;52.128;21.060;2022-08-16T23:16:53;99796.66;;;24.14;66.36
43683;BME280;29285;52.128;21.060;2022-08-16T23:21:53;99793.14;;;24.19;66.50
43683;BME280;29285;52.128;21.060;2022-08-16T23:26:55;99793.36;;;24.28;66.69
43683;BME280;29285;52.128;21.060;2022-08-16T23:32:07;99779.80;;;24.31;66.74
43683;BME280;29285;52.128;21.060;2022-08-16T23:37:04;99788.13;;;24.32;66.72
43683;BME280;29285;52.128;21.060;2022-08-16T23:42:13;99790.94;;;24.30;66.71
43683;BME280;29285;52.128;21.060;2022-08-16T23:47:15;99788.28;;;24.25;66.64
43683;BME280;29285;52.128;21.060;2022-08-16T23:52:16;99779.97;;;24.18;66.62
43683;BME280;29285;52.128;21.060;2022-08-16T23:57:17;99780.95;;;24.11;66.61
